sensor_id;sensor_type;location;lat;lon;timestamp;temperature;humidity
9437;DHT22;4757;59.334;18.034;2023-02-15T00:02:02;3.30;99.90
9437;DHT22;4757;59.334;18.034;2023-02-15T00:04:29;3.30;99.90
9437;DHT22;4757;59.334;18.034;2023-02-15T00:07:17;3.30;99.90
9437;DHT22;4757;59.334;18.034;2023-02-15T00:09:46;3.30;99.90
9437;DHT22;4757;59.334;18.034;2023-02-15T00:12:14;3.30;99.90
9437;DHT22;4757;59.334;18.034;2023-02-15T00:14:42;3.30;99.90
9437;DHT22;4757;59.334;18.034;2023-02-15T00:17:09;3.30;99.90
9437;DHT22;4757;59.334;18.034;2023-02-15T00:19:36;3.30;99.90
9437;DHT22;4757;59.334;18.034;2023-02-15T00:22:03;3.40;99.90
9437;DHT22;4757;59.334;18.034;2023-02-15T00:24:30;3.30;99.90
9437;DHT22;4757;59.334;18.034;2023-02-15T00:26:58;3.40;99.90
9437;DHT22;4757;59.334;18.034;2023-02-15T00:29:25;3.40;99.90
9437;DHT22;4757;59.334;18.034;2023-02-15T00:31:52;3.40;99.90
9437;DHT22;4757;59.334;18.034;2023-02-15T00:34:25;3.40;99.90
9437;DHT22;4757;59.334;18.034;2023-02-15T00:36:52;3.40;99.90
9437;DHT22;4757;59.334;18.034;2023-02-15T00:39:20;3.40;99.90
9437;DHT22;4757;59.334;18.034;2023-02-15T00:41:48;3.40;99.90
9437;DHT22;4757;59.334;18.034;2023-02-15T00:44:15;3.40;99.90
9437;DHT22;4757;59.334;18.034;2023-02-15T00:46:42;3.40;99.90
9437;DHT22;4757;59.334;18.034;2023-02-15T00:49:10;3.40;99.90
9437;DHT22;4757;59.334;18.034;2023-02-15T00:51:38;3.40;99.90
9437;DHT22;4757;59.334;18.034;2023-02-15T00:54:06;3.40;99.90
9437;DHT22;4757;59.334;18.034;2023-02-15T00:56:33;3.40;99.90
9437;DHT22;4757;59.334;18.034;2023-02-15T00:59:03;3.40;99.90
9437;DHT22;4757;59.334;18.034;2023-02-15T01:01:30;3.40;99.90
9437;DHT22;4757;59.334;18.034;2023-02-15T01:03:57;3.40;99.90
9437;DHT22;4757;59.334;18.034;2023-02-15T01:06:24;3.40;99.90
9437;DHT22;4757;59.334;18.034;2023-02-15T01:08:52;3.30;99.90
9437;DHT22;4757;59.334;18.034;2023-02-15T01:11:21;3.30;99.90
9437;DHT22;4757;59.334;18.034;2023-02-15T01:13:50;3.30;99.90
9437;DHT22;4757;59.334;18.034;2023-02-15T01:16:18;3.30;99.90
9437;DHT22;4757;59.334;18.034;2023-02-15T01:18:45;3.30;99.90
9437;DHT22;4757;59.334;18.034;2023-02-15T01:21:14;3.30;99.90
9437;DHT22;4757;59.334;18.034;2023-02-15T01:23:43;3.40;99.90
9437;DHT22;4757;59.334;18.034;2023-02-15T01:26:10;3.30;99.90
9437;DHT22;4757;59.334;18.034;2023-02-15T01:28:38;3.30;99.90
9437;DHT22;4757;59.334;18.034;2023-02-15T01:31:10;3.30;99.90
9437;DHT22;4757;59.334;18.034;2023-02-15T01:33:38;3.30;99.90
9437;DHT22;4757;59.334;18.034;2023-02-15T01:36:06;3.40;99.90
9437;DHT22;4757;59.334;18.034;2023-02-15T01:38:34;3.30;99.90
9437;DHT22;4757;59.334;18.034;2023-02-15T01:41:01;3.30;99.90
9437;DHT22;4757;59.334;18.034;2023-02-15T01:47:03;3.30;99.90
9437;DHT22;4757;59.334;18.034;2023-02-15T01:49:30;3.30;99.90
9437;DHT22;4757;59.334;18.034;2023-02-15T01:51:57;3.30;99.90
9437;DHT22;4757;59.334;18.034;2023-02-15T01:54:29;3.30;99.90
9437;DHT22;4757;59.334;18.034;2023-02-15T01:57:03;3.30;99.90
9437;DHT22;4757;59.334;18.034;2023-02-15T01:59:32;3.30;99.90
9437;DHT22;4757;59.334;18.034;2023-02-15T02:02:01;3.30;99.90
9437;DHT22;4757;59.334;18.034;2023-02-15T02:04:40;3.30;99.90
9437;DHT22;4757;59.334;18.034;2023-02-15T02:07:09;3.30;99.90
9437;DHT22;4757;59.334;18.034;2023-02-15T02:09:39;3.40;99.90
9437;DHT22;4757;59.334;18.034;2023-02-15T02:12:07;3.30;99.90
9437;DHT22;4757;59.334;18.034;2023-02-15T02:14:36;3.40;99.90
9437;DHT22;4757;59.334;18.034;2023-02-15T02:29:32;3.30;99.90
9437;DHT22;4757;59.334;18.034;2023-02-15T02:44:02;3.30;99.90
9437;DHT22;4757;59.334;18.034;2023-02-15T02:46:48;3.40;99.90
9437;DHT22;4757;59.334;18.034;2023-02-15T02:49:34;3.40;99.90
9437;DHT22;4757;59.334;18.034;2023-02-15T02:52:41;3.40;99.90
9437;DHT22;4757;59.334;18.034;2023-02-15T02:55:20;3.40;99.90
9437;DHT22;4757;59.334;18.034;2023-02-15T03:00:31;3.40;99.90
9437;DHT22;4757;59.334;18.034;2023-02-15T03:03:29;3.30;99.90
9437;DHT22;4757;59.334;18.034;2023-02-15T03:06:00;3.30;99.90
9437;DHT22;4757;59.334;18.034;2023-02-15T03:08:36;3.40;99.90
9437;DHT22;4757;59.334;18.034;2023-02-15T03:11:12;3.40;99.90
9437;DHT22;4757;59.334;18.034;2023-02-15T03:13:46;3.30;99.90
9437;DHT22;4757;59.334;18.034;2023-02-15T03:16:21;3.30;99.90
9437;DHT22;4757;59.334;18.034;2023-02-15T03:19:21;3.40;99.90
9437;DHT22;4757;59.334;18.034;2023-02-15T03:21:57;3.30;99.90
9437;DHT22;4757;59.334;18.034;2023-02-15T03:24:37;3.40;99.90
9437;DHT22;4757;59.334;18.034;2023-02-15T03:27:11;3.40;99.90
9437;DHT22;4757;59.334;18.034;2023-02-15T03:33:08;3.40;99.90
9437;DHT22;4757;59.334;18.034;2023-02-15T03:35:49;3.40;99.90
9437;DHT22;4757;59.334;18.034;2023-02-15T03:38:30;3.40;99.90
9437;DHT22;4757;59.334;18.034;2023-02-15T03:41:00;3.40;99.90
9437;DHT22;4757;59.334;18.034;2023-02-15T03:49:09;3.40;99.90
9437;DHT22;4757;59.334;18.034;2023-02-15T03:51:40;3.40;99.90
9437;DHT22;4757;59.334;18.034;2023-02-15T03:54:18;3.40;99.90
9437;DHT22;4757;59.334;18.034;2023-02-15T03:57:19;3.40;99.90
9437;DHT22;4757;59.334;18.034;2023-02-15T04:00:21;3.40;99.90
9437;DHT22;4757;59.334;18.034;2023-02-15T04:03:31;3.40;99.90
9437;DHT22;4757;59.334;18.034;2023-02-15T04:06:01;3.40;99.90
9437;DHT22;4757;59.334;18.034;2023-02-15T04:08:32;3.40;99.90
9437;DHT22;4757;59.334;18.034;2023-02-15T04:11:22;3.40;99.90
9437;DHT22;4757;59.334;18.034;2023-02-15T04:13:50;3.40;99.90
9437;DHT22;4757;59.334;18.034;2023-02-15T04:16:31;3.40;99.90
9437;DHT22;4757;59.334;18.034;2023-02-15T04:19:00;3.40;99.90
9437;DHT22;4757;59.334;18.034;2023-02-15T04:21:46;3.40;99.90
9437;DHT22;4757;59.334;18.034;2023-02-15T04:24:32;3.40;99.90
9437;DHT22;4757;59.334;18.034;2023-02-15T04:27:19;3.40;99.90
9437;DHT22;4757;59.334;18.034;2023-02-15T04:29:46;3.40;99.90
9437;DHT22;4757;59.334;18.034;2023-02-15T04:32:13;3.40;99.90
9437;DHT22;4757;59.334;18.034;2023-02-15T04:34:40;3.40;99.90
9437;DHT22;4757;59.334;18.034;2023-02-15T04:37:11;3.40;99.90
9437;DHT22;4757;59.334;18.034;2023-02-15T04:39:38;3.40;99.90
9437;DHT22;4757;59.334;18.034;2023-02-15T04:42:08;3.40;99.90
9437;DHT22;4757;59.334;18.034;2023-02-15T04:44:41;3.40;99.90
9437;DHT22;4757;59.334;18.034;2023-02-15T04:47:08;3.40;99.90
9437;DHT22;4757;59.334;18.034;2023-02-15T04:49:36;3.40;99.90
9437;DHT22;4757;59.334;18.034;2023-02-15T04:52:04;3.50;99.90
9437;DHT22;4757;59.334;18.034;2023-02-15T04:54:33;3.40;99.90
9437;DHT22;4757;59.334;18.034;2023-02-15T04:57:01;3.40;99.90
9437;DHT22;4757;59.334;18.034;2023-02-15T04:59:28;3.50;99.90
9437;DHT22;4757;59.334;18.034;2023-02-15T05:01:58;3.50;99.90
9437;DHT22;4757;59.334;18.034;2023-02-15T05:04:26;3.50;99.90
9437;DHT22;4757;59.334;18.034;2023-02-15T05:06:53;3.50;99.90
9437;DHT22;4757;59.334;18.034;2023-02-15T05:09:25;3.40;99.90
9437;DHT22;4757;59.334;18.034;2023-02-15T05:11:55;3.40;99.90
9437;DHT22;4757;59.334;18.034;2023-02-15T05:14:22;3.40;99.90
9437;DHT22;4757;59.334;18.034;2023-02-15T05:16:49;3.40;99.90
9437;DHT22;4757;59.334;18.034;2023-02-15T05:19:16;3.40;99.90
9437;DHT22;4757;59.334;18.034;2023-02-15T05:21:44;3.50;99.90
9437;DHT22;4757;59.334;18.034;2023-02-15T05:24:12;3.50;99.90
9437;DHT22;4757;59.334;18.034;2023-02-15T05:26:58;3.50;99.90
9437;DHT22;4757;59.334;18.034;2023-02-15T05:29:43;3.50;99.90
9437;DHT22;4757;59.334;18.034;2023-02-15T05:32:13;3.50;99.90
9437;DHT22;4757;59.334;18.034;2023-02-15T05:34:44;3.50;99.90
9437;DHT22;4757;59.334;18.034;2023-02-15T05:37:11;3.50;99.90
9437;DHT22;4757;59.334;18.034;2023-02-15T05:39:39;3.50;99.90
9437;DHT22;4757;59.334;18.034;2023-02-15T05:42:09;3.50;99.90
9437;DHT22;4757;59.334;18.034;2023-02-15T05:44:40;3.50;99.90
9437;DHT22;4757;59.334;18.034;2023-02-15T05:47:09;3.60;99.90
9437;DHT22;4757;59.334;18.034;2023-02-15T05:49:37;3.50;99.90
9437;DHT22;4757;59.334;18.034;2023-02-15T05:52:05;3.50;99.90
9437;DHT22;4757;59.334;18.034;2023-02-15T05:54:34;3.50;99.90
9437;DHT22;4757;59.334;18.034;2023-02-15T05:57:03;3.50;99.90
9437;DHT22;4757;59.334;18.034;2023-02-15T05:59:34;3.50;99.90
9437;DHT22;4757;59.334;18.034;2023-02-15T06:02:01;3.50;99.90
9437;DHT22;4757;59.334;18.034;2023-02-15T06:04:30;3.60;99.90
9437;DHT22;4757;59.334;18.034;2023-02-15T06:06:59;3.60;99.90
9437;DHT22;4757;59.334;18.034;2023-02-15T06:09:31;3.60;99.90
9437;DHT22;4757;59.334;18.034;2023-02-15T06:12:01;3.60;99.90
9437;DHT22;4757;59.334;18.034;2023-02-15T06:14:31;3.60;99.90
9437;DHT22;4757;59.334;18.034;2023-02-15T06:17:04;3.60;99.90
9437;DHT22;4757;59.334;18.034;2023-02-15T06:19:32;3.60;99.90
9437;DHT22;4757;59.334;18.034;2023-02-15T06:21:59;3.60;99.90
9437;DHT22;4757;59.334;18.034;2023-02-15T06:24:28;3.70;99.90
9437;DHT22;4757;59.334;18.034;2023-02-15T06:26:55;3.60;99.90
9437;DHT22;4757;59.334;18.034;2023-02-15T06:29:23;3.60;99.90
9437;DHT22;4757;59.334;18.034;2023-02-15T06:31:52;3.60;99.90
9437;DHT22;4757;59.334;18.034;2023-02-15T06:34:21;3.60;99.90
9437;DHT22;4757;59.334;18.034;2023-02-15T06:36:48;3.70;99.90
9437;DHT22;4757;59.334;18.034;2023-02-15T06:39:47;3.70;99.90
9437;DHT22;4757;59.334;18.034;2023-02-15T06:42:17;3.70;99.90
9437;DHT22;4757;59.334;18.034;2023-02-15T06:44:45;3.70;99.90
9437;DHT22;4757;59.334;18.034;2023-02-15T06:47:15;3.70;99.90
9437;DHT22;4757;59.334;18.034;2023-02-15T06:49:42;3.70;99.90
9437;DHT22;4757;59.334;18.034;2023-02-15T06:52:12;3.70;99.90
9437;DHT22;4757;59.334;18.034;2023-02-15T06:54:40;3.70;99.90
9437;DHT22;4757;59.334;18.034;2023-02-15T06:57:21;3.80;99.90
9437;DHT22;4757;59.334;18.034;2023-02-15T06:59:51;3.80;99.90
9437;DHT22;4757;59.334;18.034;2023-02-15T07:02:28;3.70;99.90
9437;DHT22;4757;59.334;18.034;2023-02-15T07:04:57;3.70;99.90
9437;DHT22;4757;59.334;18.034;2023-02-15T07:07:25;3.80;99.90
9437;DHT22;4757;59.334;18.034;2023-02-15T07:09:57;3.70;99.90
9437;DHT22;4757;59.334;18.034;2023-02-15T07:12:29;3.70;99.90
9437;DHT22;4757;59.334;18.034;2023-02-15T07:15:18;3.70;99.90
9437;DHT22;4757;59.334;18.034;2023-02-15T07:18:09;3.70;99.90
9437;DHT22;4757;59.334;18.034;2023-02-15T07:20:49;3.70;99.90
9437;DHT22;4757;59.334;18.034;2023-02-15T07:23:19;3.70;99.90
9437;DHT22;4757;59.334;18.034;2023-02-15T07:26:05;3.70;99.90
9437;DHT22;4757;59.334;18.034;2023-02-15T07:28:37;3.70;99.90
9437;DHT22;4757;59.334;18.034;2023-02-15T07:31:18;3.70;99.90
9437;DHT22;4757;59.334;18.034;2023-02-15T07:33:48;3.70;99.90
9437;DHT22;4757;59.334;18.034;2023-02-15T07:36:16;3.70;99.90
9437;DHT22;4757;59.334;18.034;2023-02-15T07:38:46;3.70;99.90
9437;DHT22;4757;59.334;18.034;2023-02-15T07:41:25;3.70;99.90
9437;DHT22;4757;59.334;18.034;2023-02-15T07:46:51;3.70;99.90
9437;DHT22;4757;59.334;18.034;2023-02-15T07:49:23;3.80;99.90
9437;DHT22;4757;59.334;18.034;2023-02-15T07:51:55;3.80;99.90
9437;DHT22;4757;59.334;18.034;2023-02-15T07:54:35;3.80;99.90
9437;DHT22;4757;59.334;18.034;2023-02-15T07:57:08;3.70;99.90
9437;DHT22;4757;59.334;18.034;2023-02-15T07:59:47;3.70;99.90
9437;DHT22;4757;59.334;18.034;2023-02-15T08:02:17;3.70;99.90
9437;DHT22;4757;59.334;18.034;2023-02-15T08:04:47;3.80;99.90
9437;DHT22;4757;59.334;18.034;2023-02-15T08:07:29;3.80;99.90
9437;DHT22;4757;59.334;18.034;2023-02-15T08:10:15;3.60;99.90
9437;DHT22;4757;59.334;18.034;2023-02-15T08:13:03;3.80;99.90
9437;DHT22;4757;59.334;18.034;2023-02-15T08:15:35;3.70;99.90
9437;DHT22;4757;59.334;18.034;2023-02-15T08:18:07;3.70;99.90
9437;DHT22;4757;59.334;18.034;2023-02-15T08:20:40;3.70;99.90
9437;DHT22;4757;59.334;18.034;2023-02-15T08:23:12;3.80;99.90
9437;DHT22;4757;59.334;18.034;2023-02-15T08:26:07;3.80;99.90
9437;DHT22;4757;59.334;18.034;2023-02-15T08:28:44;3.80;99.90
9437;DHT22;4757;59.334;18.034;2023-02-15T08:31:16;3.80;99.90
9437;DHT22;4757;59.334;18.034;2023-02-15T08:33:48;3.80;99.90
9437;DHT22;4757;59.334;18.034;2023-02-15T08:36:18;3.80;99.90
9437;DHT22;4757;59.334;18.034;2023-02-15T08:38:48;3.80;99.90
9437;DHT22;4757;59.334;18.034;2023-02-15T08:41:26;3.80;99.90
9437;DHT22;4757;59.334;18.034;2023-02-15T08:44:03;3.80;99.90
9437;DHT22;4757;59.334;18.034;2023-02-15T08:46:33;3.80;99.90
9437;DHT22;4757;59.334;18.034;2023-02-15T08:49:06;3.80;99.90
9437;DHT22;4757;59.334;18.034;2023-02-15T08:51:41;3.90;99.90
9437;DHT22;4757;59.334;18.034;2023-02-15T08:54:21;3.90;99.90
9437;DHT22;4757;59.334;18.034;2023-02-15T08:56:54;3.90;99.90
9437;DHT22;4757;59.334;18.034;2023-02-15T08:59:29;3.90;99.90
9437;DHT22;4757;59.334;18.034;2023-02-15T09:01:59;3.90;99.90
9437;DHT22;4757;59.334;18.034;2023-02-15T09:04:30;3.90;99.90
9437;DHT22;4757;59.334;18.034;2023-02-15T09:10:09;3.90;99.90
9437;DHT22;4757;59.334;18.034;2023-02-15T09:13:15;3.80;99.90
9437;DHT22;4757;59.334;18.034;2023-02-15T09:15:47;3.80;99.90
9437;DHT22;4757;59.334;18.034;2023-02-15T09:18:19;3.80;99.90
9437;DHT22;4757;59.334;18.034;2023-02-15T09:20:52;3.80;99.90
9437;DHT22;4757;59.334;18.034;2023-02-15T09:23:19;3.80;99.90
9437;DHT22;4757;59.334;18.034;2023-02-15T09:25:52;3.80;99.90
9437;DHT22;4757;59.334;18.034;2023-02-15T09:28:23;3.90;99.90
9437;DHT22;4757;59.334;18.034;2023-02-15T09:30:55;3.80;99.90
9437;DHT22;4757;59.334;18.034;2023-02-15T09:33:27;3.80;99.90
9437;DHT22;4757;59.334;18.034;2023-02-15T09:35:56;3.80;99.90
9437;DHT22;4757;59.334;18.034;2023-02-15T09:38:24;3.90;99.90
9437;DHT22;4757;59.334;18.034;2023-02-15T09:52:54;3.80;99.90
9437;DHT22;4757;59.334;18.034;2023-02-15T10:09:03;3.80;99.90
9437;DHT22;4757;59.334;18.034;2023-02-15T10:26:19;3.90;99.90
9437;DHT22;4757;59.334;18.034;2023-02-15T10:31:27;3.90;99.90
9437;DHT22;4757;59.334;18.034;2023-02-15T10:37:05;3.90;99.90
9437;DHT22;4757;59.334;18.034;2023-02-15T10:46:02;3.80;99.90
9437;DHT22;4757;59.334;18.034;2023-02-15T10:54:59;3.90;99.90
9437;DHT22;4757;59.334;18.034;2023-02-15T10:57:46;3.90;99.90
9437;DHT22;4757;59.334;18.034;2023-02-15T11:08:32;4.10;99.90
9437;DHT22;4757;59.334;18.034;2023-02-15T11:11:05;4.10;99.90
9437;DHT22;4757;59.334;18.034;2023-02-15T11:13:40;4.10;99.90
9437;DHT22;4757;59.334;18.034;2023-02-15T11:16:22;4.00;99.90
9437;DHT22;4757;59.334;18.034;2023-02-15T11:18:53;4.10;99.90
9437;DHT22;4757;59.334;18.034;2023-02-15T11:21:31;4.00;99.90
9437;DHT22;4757;59.334;18.034;2023-02-15T11:24:24;4.00;99.90
9437;DHT22;4757;59.334;18.034;2023-02-15T11:27:10;4.00;99.90
9437;DHT22;4757;59.334;18.034;2023-02-15T11:30:00;3.90;99.90
9437;DHT22;4757;59.334;18.034;2023-02-15T11:32:33;3.90;99.90
9437;DHT22;4757;59.334;18.034;2023-02-15T11:37:46;3.90;99.90
9437;DHT22;4757;59.334;18.034;2023-02-15T11:40:41;3.90;99.90
9437;DHT22;4757;59.334;18.034;2023-02-15T11:45:47;3.90;99.90
9437;DHT22;4757;59.334;18.034;2023-02-15T11:48:16;3.90;99.90
9437;DHT22;4757;59.334;18.034;2023-02-15T11:50:48;3.90;99.90
9437;DHT22;4757;59.334;18.034;2023-02-15T11:53:21;3.90;99.90
9437;DHT22;4757;59.334;18.034;2023-02-15T11:55:52;4.00;99.90
9437;DHT22;4757;59.334;18.034;2023-02-15T12:01:13;3.90;99.90
9437;DHT22;4757;59.334;18.034;2023-02-15T12:03:47;4.00;99.90
9437;DHT22;4757;59.334;18.034;2023-02-15T12:12:21;4.00;99.90
9437;DHT22;4757;59.334;18.034;2023-02-15T12:14:55;4.10;99.90
9437;DHT22;4757;59.334;18.034;2023-02-15T12:17:31;4.10;99.90
9437;DHT22;4757;59.334;18.034;2023-02-15T12:20:19;4.10;99.90
9437;DHT22;4757;59.334;18.034;2023-02-15T12:22:58;4.00;99.90
9437;DHT22;4757;59.334;18.034;2023-02-15T12:26:01;4.00;99.90
9437;DHT22;4757;59.334;18.034;2023-02-15T12:28:34;4.10;99.90
9437;DHT22;4757;59.334;18.034;2023-02-15T12:31:26;4.00;99.90
9437;DHT22;4757;59.334;18.034;2023-02-15T12:33:56;4.00;99.90
9437;DHT22;4757;59.334;18.034;2023-02-15T12:36:32;4.00;99.90
9437;DHT22;4757;59.334;18.034;2023-02-15T12:39:21;3.90;99.90
9437;DHT22;4757;59.334;18.034;2023-02-15T12:47:17;3.80;99.90
9437;DHT22;4757;59.334;18.034;2023-02-15T12:50:13;3.80;99.90
9437;DHT22;4757;59.334;18.034;2023-02-15T12:52:46;3.70;99.90
9437;DHT22;4757;59.334;18.034;2023-02-15T12:55:24;3.60;99.90
9437;DHT22;4757;59.334;18.034;2023-02-15T12:58:18;3.60;99.90
9437;DHT22;4757;59.334;18.034;2023-02-15T13:00:45;3.60;99.90
9437;DHT22;4757;59.334;18.034;2023-02-15T13:03:21;3.70;99.90
9437;DHT22;4757;59.334;18.034;2023-02-15T13:05:52;3.50;99.90
9437;DHT22;4757;59.334;18.034;2023-02-15T13:08:25;3.70;99.90
9437;DHT22;4757;59.334;18.034;2023-02-15T13:11:08;3.60;99.90
9437;DHT22;4757;59.334;18.034;2023-02-15T13:14:15;3.60;99.90
9437;DHT22;4757;59.334;18.034;2023-02-15T13:20:17;3.70;99.90
9437;DHT22;4757;59.334;18.034;2023-02-15T13:22:58;3.60;99.90
9437;DHT22;4757;59.334;18.034;2023-02-15T13:25:34;3.50;99.90
9437;DHT22;4757;59.334;18.034;2023-02-15T13:28:12;3.50;99.90
9437;DHT22;4757;59.334;18.034;2023-02-15T13:30:47;3.60;99.90
9437;DHT22;4757;59.334;18.034;2023-02-15T13:33:31;3.60;99.90
9437;DHT22;4757;59.334;18.034;2023-02-15T13:53:56;3.80;99.90
9437;DHT22;4757;59.334;18.034;2023-02-15T13:56:58;3.70;99.90
9437;DHT22;4757;59.334;18.034;2023-02-15T13:59:37;3.70;99.90
9437;DHT22;4757;59.334;18.034;2023-02-15T14:14:15;3.60;99.90
9437;DHT22;4757;59.334;18.034;2023-02-15T14:17:18;3.60;99.90
9437;DHT22;4757;59.334;18.034;2023-02-15T14:19:59;3.60;99.90
9437;DHT22;4757;59.334;18.034;2023-02-15T14:22:36;3.60;99.90
9437;DHT22;4757;59.334;18.034;2023-02-15T14:28:16;3.60;99.90
9437;DHT22;4757;59.334;18.034;2023-02-15T14:30:48;3.60;99.90
9437;DHT22;4757;59.334;18.034;2023-02-15T14:33:37;3.60;99.90
9437;DHT22;4757;59.334;18.034;2023-02-15T14:36:10;3.50;99.90
9437;DHT22;4757;59.334;18.034;2023-02-15T14:43:01;3.60;99.90
9437;DHT22;4757;59.334;18.034;2023-02-15T14:48:31;3.50;99.90
9437;DHT22;4757;59.334;18.034;2023-02-15T14:51:01;3.50;99.90
9437;DHT22;4757;59.334;18.034;2023-02-15T14:53:38;3.50;99.90
9437;DHT22;4757;59.334;18.034;2023-02-15T15:01:38;3.50;99.90
9437;DHT22;4757;59.334;18.034;2023-02-15T15:04:31;3.50;99.90
9437;DHT22;4757;59.334;18.034;2023-02-15T15:09:43;3.40;99.90
9437;DHT22;4757;59.334;18.034;2023-02-15T15:12:36;3.40;99.90
9437;DHT22;4757;59.334;18.034;2023-02-15T15:15:04;3.40;99.90
9437;DHT22;4757;59.334;18.034;2023-02-15T15:20:37;3.30;99.90
9437;DHT22;4757;59.334;18.034;2023-02-15T15:26:32;3.30;99.90
9437;DHT22;4757;59.334;18.034;2023-02-15T15:33:19;3.20;99.90
9437;DHT22;4757;59.334;18.034;2023-02-15T15:50:47;3.10;99.90
9437;DHT22;4757;59.334;18.034;2023-02-15T15:53:31;3.10;99.90
9437;DHT22;4757;59.334;18.034;2023-02-15T15:56:38;3.10;99.90
9437;DHT22;4757;59.334;18.034;2023-02-15T15:59:43;3.10;99.90
9437;DHT22;4757;59.334;18.034;2023-02-15T16:05:46;3.10;99.90
9437;DHT22;4757;59.334;18.034;2023-02-15T16:08:35;3.10;99.90
9437;DHT22;4757;59.334;18.034;2023-02-15T16:11:24;3.00;99.90
9437;DHT22;4757;59.334;18.034;2023-02-15T16:13:55;3.00;99.90
9437;DHT22;4757;59.334;18.034;2023-02-15T16:16:27;3.00;99.90
9437;DHT22;4757;59.334;18.034;2023-02-15T16:22:30;3.00;99.90
9437;DHT22;4757;59.334;18.034;2023-02-15T16:25:36;3.00;99.90
9437;DHT22;4757;59.334;18.034;2023-02-15T16:28:20;3.00;99.90
9437;DHT22;4757;59.334;18.034;2023-02-15T16:34:17;2.90;99.90
9437;DHT22;4757;59.334;18.034;2023-02-15T16:37:17;2.80;99.90
9437;DHT22;4757;59.334;18.034;2023-02-15T16:40:38;2.90;99.90
9437;DHT22;4757;59.334;18.034;2023-02-15T16:43:21;2.80;99.90
9437;DHT22;4757;59.334;18.034;2023-02-15T16:46:54;2.80;99.90
9437;DHT22;4757;59.334;18.034;2023-02-15T16:49:23;2.80;99.90
9437;DHT22;4757;59.334;18.034;2023-02-15T16:52:23;2.80;99.90
9437;DHT22;4757;59.334;18.034;2023-02-15T16:55:23;2.80;99.90
9437;DHT22;4757;59.334;18.034;2023-02-15T16:58:17;2.80;99.90
9437;DHT22;4757;59.334;18.034;2023-02-15T17:01:41;2.80;99.90
9437;DHT22;4757;59.334;18.034;2023-02-15T17:11:16;2.70;99.90
9437;DHT22;4757;59.334;18.034;2023-02-15T17:16:33;2.60;99.90
9437;DHT22;4757;59.334;18.034;2023-02-15T17:19:03;2.60;99.90
9437;DHT22;4757;59.334;18.034;2023-02-15T17:21:42;2.60;99.90
9437;DHT22;4757;59.334;18.034;2023-02-15T17:24:22;2.60;99.90
9437;DHT22;4757;59.334;18.034;2023-02-15T17:26:54;2.60;99.90
9437;DHT22;4757;59.334;18.034;2023-02-15T17:29:36;2.60;99.90
9437;DHT22;4757;59.334;18.034;2023-02-15T17:32:11;2.50;99.90
9437;DHT22;4757;59.334;18.034;2023-02-15T17:34:49;2.50;99.90
9437;DHT22;4757;59.334;18.034;2023-02-15T17:40:25;2.50;99.90
9437;DHT22;4757;59.334;18.034;2023-02-15T17:42:53;2.50;99.90
9437;DHT22;4757;59.334;18.034;2023-02-15T17:45:21;2.40;99.90
9437;DHT22;4757;59.334;18.034;2023-02-15T17:47:49;2.40;99.90
9437;DHT22;4757;59.334;18.034;2023-02-15T17:50:20;2.40;99.90
9437;DHT22;4757;59.334;18.034;2023-02-15T17:52:49;2.50;99.90
9437;DHT22;4757;59.334;18.034;2023-02-15T17:55:18;2.40;99.90
9437;DHT22;4757;59.334;18.034;2023-02-15T17:58:04;2.50;99.90
9437;DHT22;4757;59.334;18.034;2023-02-15T18:00:34;2.50;99.90
9437;DHT22;4757;59.334;18.034;2023-02-15T18:03:21;2.40;99.90
9437;DHT22;4757;59.334;18.034;2023-02-15T18:06:07;2.40;99.90
9437;DHT22;4757;59.334;18.034;2023-02-15T18:08:53;2.30;99.90
9437;DHT22;4757;59.334;18.034;2023-02-15T18:11:38;2.40;99.90
9437;DHT22;4757;59.334;18.034;2023-02-15T18:14:09;2.40;99.90
9437;DHT22;4757;59.334;18.034;2023-02-15T18:16:39;2.30;99.90
9437;DHT22;4757;59.334;18.034;2023-02-15T18:19:14;2.30;99.90
9437;DHT22;4757;59.334;18.034;2023-02-15T18:21:42;2.20;99.90
9437;DHT22;4757;59.334;18.034;2023-02-15T18:24:20;2.20;99.90
9437;DHT22;4757;59.334;18.034;2023-02-15T18:26:48;2.20;99.90
9437;DHT22;4757;59.334;18.034;2023-02-15T18:29:18;2.20;99.90
9437;DHT22;4757;59.334;18.034;2023-02-15T18:31:50;2.20;99.90
9437;DHT22;4757;59.334;18.034;2023-02-15T18:34:31;2.20;99.90
9437;DHT22;4757;59.334;18.034;2023-02-15T18:37:00;2.20;99.90
9437;DHT22;4757;59.334;18.034;2023-02-15T18:39:38;2.20;99.90
9437;DHT22;4757;59.334;18.034;2023-02-15T18:42:27;2.20;99.90
9437;DHT22;4757;59.334;18.034;2023-02-15T18:48:00;2.20;99.90
9437;DHT22;4757;59.334;18.034;2023-02-15T18:50:33;2.10;99.90
9437;DHT22;4757;59.334;18.034;2023-02-15T18:53:02;2.10;99.90
9437;DHT22;4757;59.334;18.034;2023-02-15T18:55:29;2.10;99.90
9437;DHT22;4757;59.334;18.034;2023-02-15T18:57:59;2.10;99.90
9437;DHT22;4757;59.334;18.034;2023-02-15T19:00:32;2.20;99.90
9437;DHT22;4757;59.334;18.034;2023-02-15T19:03:01;2.10;99.90
9437;DHT22;4757;59.334;18.034;2023-02-15T19:05:30;2.10;99.90
9437;DHT22;4757;59.334;18.034;2023-02-15T19:07:59;2.10;99.90
9437;DHT22;4757;59.334;18.034;2023-02-15T19:10:28;2.10;99.90
9437;DHT22;4757;59.334;18.034;2023-02-15T19:12:57;2.10;99.90
9437;DHT22;4757;59.334;18.034;2023-02-15T19:15:26;2.10;99.90
9437;DHT22;4757;59.334;18.034;2023-02-15T19:17:53;2.20;99.90
9437;DHT22;4757;59.334;18.034;2023-02-15T19:20:32;2.20;99.90
9437;DHT22;4757;59.334;18.034;2023-02-15T19:23:01;2.20;99.90
9437;DHT22;4757;59.334;18.034;2023-02-15T19:25:30;2.20;99.90
9437;DHT22;4757;59.334;18.034;2023-02-15T19:28:03;2.20;99.90
9437;DHT22;4757;59.334;18.034;2023-02-15T19:30:36;2.20;99.90
9437;DHT22;4757;59.334;18.034;2023-02-15T19:33:04;2.20;99.90
9437;DHT22;4757;59.334;18.034;2023-02-15T19:35:34;2.10;99.90
9437;DHT22;4757;59.334;18.034;2023-02-15T19:38:04;2.20;99.90
9437;DHT22;4757;59.334;18.034;2023-02-15T19:40:35;2.20;99.90
9437;DHT22;4757;59.334;18.034;2023-02-15T19:43:02;2.20;99.90
9437;DHT22;4757;59.334;18.034;2023-02-15T19:45:32;2.10;99.90
9437;DHT22;4757;59.334;18.034;2023-02-15T19:48:00;2.10;99.90
9437;DHT22;4757;59.334;18.034;2023-02-15T19:50:30;2.10;99.90
9437;DHT22;4757;59.334;18.034;2023-02-15T19:53:00;2.10;99.90
9437;DHT22;4757;59.334;18.034;2023-02-15T19:55:33;2.10;99.90
9437;DHT22;4757;59.334;18.034;2023-02-15T19:58:08;2.10;99.90
9437;DHT22;4757;59.334;18.034;2023-02-15T20:00:42;2.10;99.90
9437;DHT22;4757;59.334;18.034;2023-02-15T20:03:13;2.10;99.90
9437;DHT22;4757;59.334;18.034;2023-02-15T20:06:21;2.10;99.90
9437;DHT22;4757;59.334;18.034;2023-02-15T20:09:03;2.10;99.90
9437;DHT22;4757;59.334;18.034;2023-02-15T20:11:56;2.10;99.90
9437;DHT22;4757;59.334;18.034;2023-02-15T20:14:33;2.10;99.90
9437;DHT22;4757;59.334;18.034;2023-02-15T20:17:01;2.10;99.90
9437;DHT22;4757;59.334;18.034;2023-02-15T20:19:46;2.10;99.90
9437;DHT22;4757;59.334;18.034;2023-02-15T20:22:35;2.10;99.90
9437;DHT22;4757;59.334;18.034;2023-02-15T20:25:10;2.10;99.90
9437;DHT22;4757;59.334;18.034;2023-02-15T20:27:38;2.10;99.90
9437;DHT22;4757;59.334;18.034;2023-02-15T20:30:18;2.10;99.90
9437;DHT22;4757;59.334;18.034;2023-02-15T20:32:49;2.10;99.90
9437;DHT22;4757;59.334;18.034;2023-02-15T20:35:22;2.10;99.90
9437;DHT22;4757;59.334;18.034;2023-02-15T20:37:55;2.10;99.90
9437;DHT22;4757;59.334;18.034;2023-02-15T20:40:31;2.10;99.90
9437;DHT22;4757;59.334;18.034;2023-02-15T20:42:59;2.10;99.90
9437;DHT22;4757;59.334;18.034;2023-02-15T20:45:31;2.10;99.90
9437;DHT22;4757;59.334;18.034;2023-02-15T20:47:59;2.10;99.90
9437;DHT22;4757;59.334;18.034;2023-02-15T20:50:30;2.00;99.90